Time;durP1;ratioP1;P1;durP2;ratioP2;P2;SDS_P1;SDS_P2;PMS_P1;PMS_P2;Temp;Humidity;BMP_temperature;BMP_pressure;BME280_temperature;BME280_humidity;BME280_pressure;Samples;Min_cycle;Max_cycle;Signal;HPM_P1;HPM_P2
2022/02/12 00:01:06;;;;;;;;;;;;;;;5.29;100.00;99853.50;5041049;28;19931;-85
2022/02/12 00:03:33;;;;;;;;;;;;;;;5.42;100.00;99851.38;5057320;28;19925;-85
2022/02/12 00:06:01;;;;;;;;;;;;;;;5.52;100.00;99834.91;5040283;28;19960;-86
2022/02/12 00:08:28;;;;;;;;;;;;;;;5.70;100.00;99851.00;5065924;28;19924;-85
2022/02/12 00:10:58;;;;;;;;;;;;;;;5.60;100.00;99830.28;5060889;28;20295;-85
2022/02/12 00:13:26;;;;;;;;;;;;;;;5.79;100.00;99837.69;5077862;28;19947;-85
2022/02/12 00:15:55;;;;;;;;;;;;;;;5.87;100.00;99831.09;5077137;28;20007;-86
2022/02/12 00:18:22;;;;;;;;;;;;;;;5.66;100.00;99803.03;5044001;28;20040;-85
2022/02/12 00:20:49;;;;;;;;;;;;;;;5.79;100.00;99823.81;5076718;28;19931;-86
2022/02/12 00:23:17;;;;;;;;;;;;;;;4.98;100.00;99803.88;5044725;28;20033;-86
2022/02/12 00:25:44;;;;;;;;;;;;;;;5.55;100.00;99812.00;5044003;28;20402;-86
2022/02/12 00:28:11;;;;;;;;;;;;;;;5.27;100.00;99810.72;5060438;28;19924;-86
2022/02/12 00:30:39;;;;;;;;;;;;;;;5.43;100.00;99803.88;5077502;28;19959;-86
2022/02/12 00:33:07;;;;;;;;;;;;;;;5.41;100.00;99800.66;5044410;28;20427;-86
2022/02/12 00:35:34;;;;;;;;;;;;;;;5.30;100.00;99810.78;5049754;28;19963;-86
2022/02/12 00:38:01;;;;;;;;;;;;;;;5.58;100.00;99794.59;5040038;28;19924;-86
2022/02/12 00:41:32;;;;;;;;;;;;;;;5.63;100.00;99803.78;5103859;27;20407;-87
2022/02/12 00:43:59;;;;;;;;;;;;;;;5.33;100.00;99798.94;5071251;28;20019;-86
2022/02/12 00:46:27;;;;;;;;;;;;;;;5.66;100.00;99789.97;5053693;28;20003;-87
2022/02/12 00:48:54;;;;;;;;;;;;;;;5.33;100.00;99782.31;5053123;28;19924;-86
2022/02/12 00:51:42;;;;;;;;;;;;;;;5.29;100.00;99786.19;5173970;27;19915;-87
2022/02/12 00:54:09;;;;;;;;;;;;;;;5.50;100.00;99778.22;5121300;27;19926;-86
2022/02/12 00:56:36;;;;;;;;;;;;;;;5.57;100.00;99781.91;5138056;27;19923;-87
2022/02/12 00:59:04;;;;;;;;;;;;;;;5.57;100.00;99775.56;5155078;27;19930;-87
2022/02/12 01:01:34;;;;;;;;;;;;;;;5.12;100.00;99772.84;5137888;27;19923;-87
2022/02/12 01:04:02;;;;;;;;;;;;;;;5.57;100.00;99770.81;5103950;27;19923;-87
2022/02/12 01:06:30;;;;;;;;;;;;;;;5.67;100.00;99760.25;5155180;27;19972;-86
2022/02/12 01:08:59;;;;;;;;;;;;;;;5.51;100.00;99749.34;5155396;27;19934;-87
2022/02/12 01:11:26;;;;;;;;;;;;;;;5.58;100.00;99761.34;5155048;27;19923;-87
2022/02/12 01:13:54;;;;;;;;;;;;;;;5.85;100.00;99742.72;5120935;27;19930;-87
2022/02/12 01:16:21;;;;;;;;;;;;;;;5.45;100.00;99740.53;5154847;27;19929;-87
2022/02/12 01:18:48;;;;;;;;;;;;;;;5.59;100.00;99731.63;5154556;27;19927;-87
2022/02/12 01:21:15;;;;;;;;;;;;;;;5.18;100.00;99735.38;5155493;27;19923;-87
2022/02/12 01:23:43;;;;;;;;;;;;;;;5.33;100.00;99717.81;5137661;27;20022;-87
2022/02/12 01:26:10;;;;;;;;;;;;;;;5.54;100.00;99707.81;5154968;27;20320;-87
2022/02/12 01:28:37;;;;;;;;;;;;;;;5.69;100.00;99716.31;5137352;27;19923;-87
2022/02/12 01:31:04;;;;;;;;;;;;;;;5.70;100.00;99698.50;5137557;27;20412;-87
2022/02/12 01:33:31;;;;;;;;;;;;;;;5.93;100.00;99688.13;5154340;27;19923;-87
2022/02/12 01:35:58;;;;;;;;;;;;;;;5.43;100.00;99693.00;5154588;27;20072;-87
2022/02/12 01:38:28;;;;;;;;;;;;;;;5.54;100.00;99699.47;5154437;27;20404;-86
2022/02/12 01:40:56;;;;;;;;;;;;;;;5.58;100.00;99692.03;5154533;27;19922;-87
2022/02/12 01:43:23;;;;;;;;;;;;;;;5.45;100.00;99690.66;5137419;27;19927;-88
2022/02/12 01:45:51;;;;;;;;;;;;;;;5.36;100.00;99687.34;5154562;27;20010;-87
2022/02/12 01:48:18;;;;;;;;;;;;;;;5.53;100.00;99686.00;5119990;27;20550;-87
2022/02/12 01:50:49;;;;;;;;;;;;;;;5.57;100.00;99673.78;5153971;27;20382;-87
2022/02/12 01:53:17;;;;;;;;;;;;;;;6.01;100.00;99673.19;5119983;27;19923;-87
2022/02/12 01:55:44;;;;;;;;;;;;;;;5.39;100.00;99658.88;5103111;27;20335;-86
2022/02/12 01:58:12;;;;;;;;;;;;;;;5.53;100.00;99664.63;5136729;27;19923;-87
2022/02/12 02:00:39;;;;;;;;;;;;;;;5.60;100.00;99656.41;5154032;27;20014;-86
2022/02/12 02:03:07;;;;;;;;;;;;;;;5.55;100.00;99651.19;5105778;27;20357;-87
2022/02/12 02:05:36;;;;;;;;;;;;;;;5.95;100.00;99642.22;5140453;27;20014;-87
2022/02/12 02:08:22;;;;;;;;;;;;;;;5.75;100.00;99645.50;5128548;27;19930;-87
2022/02/12 02:10:53;;;;;;;;;;;;;;;5.69;100.00;99641.47;5123149;27;19930;-87
2022/02/12 02:13:22;;;;;;;;;;;;;;;5.45;100.00;99643.53;5123462;27;20392;-87
2022/02/12 02:15:49;;;;;;;;;;;;;;;5.68;100.00;99637.09;5139980;27;19971;-87
2022/02/12 02:18:16;;;;;;;;;;;;;;;5.23;100.00;99622.25;5122788;27;19930;-87
2022/02/12 02:20:43;;;;;;;;;;;;;;;5.72;100.00;99632.38;5140202;27;19930;-87
2022/02/12 02:23:11;;;;;;;;;;;;;;;5.76;100.00;99622.13;5106298;27;20018;-87
2022/02/12 02:25:38;;;;;;;;;;;;;;;5.54;100.00;99621.88;5105549;27;19923;-87
2022/02/12 02:28:05;;;;;;;;;;;;;;;5.90;100.00;99628.69;5105810;27;20389;-87
2022/02/12 02:30:33;;;;;;;;;;;;;;;5.83;100.00;99617.50;5157705;27;20396;-87
2022/02/12 02:33:02;;;;;;;;;;;;;;;6.02;100.00;99610.97;5122823;27;20386;-86
2022/02/12 02:35:29;;;;;;;;;;;;;;;5.77;100.00;99620.97;5105574;27;19923;-87
2022/02/12 02:38:04;;;;;;;;;;;;;;;5.49;100.00;99613.09;5139975;27;19923;-87
2022/02/12 02:40:31;;;;;;;;;;;;;;;5.60;100.00;99609.28;5122534;27;19923;-86
2022/02/12 02:42:58;;;;;;;;;;;;;;;5.85;100.00;99611.56;5123074;27;19950;-87
2022/02/12 02:45:26;;;;;;;;;;;;;;;6.26;100.00;99602.09;5121949;27;20369;-87
2022/02/12 02:48:00;;;;;;;;;;;;;;;6.09;100.00;99597.19;5122582;27;19923;-87
2022/02/12 02:56:02;;;;;;;;;;;;;;;5.26;100.00;99566.09;5121774;27;19934;-86
2022/02/12 02:58:32;;;;;;;;;;;;;;;6.17;100.00;99571.91;5139566;27;19929;-87
2022/02/12 03:01:00;;;;;;;;;;;;;;;6.34;100.00;99564.91;5121827;27;20347;-87
2022/02/12 03:03:29;;;;;;;;;;;;;;;5.91;100.00;99563.69;5122250;27;19923;-87
2022/02/12 03:05:58;;;;;;;;;;;;;;;5.90;100.00;99561.31;5122052;27;19956;-87
2022/02/12 03:08:26;;;;;;;;;;;;;;;5.81;100.00;99546.94;5138361;27;19930;-87
2022/02/12 03:10:53;;;;;;;;;;;;;;;6.17;100.00;99549.69;5104674;27;20445;-87
2022/02/12 03:13:20;;;;;;;;;;;;;;;6.09;100.00;99548.03;5137384;27;20400;-88
2022/02/12 03:15:48;;;;;;;;;;;;;;;6.09;100.00;99530.59;5105005;27;19927;-87
2022/02/12 03:18:16;;;;;;;;;;;;;;;5.80;100.00;99539.78;5138825;27;19923;-88
2022/02/12 03:20:43;;;;;;;;;;;;;;;5.74;100.00;99536.53;5104599;27;19930;-88
2022/02/12 03:23:11;;;;;;;;;;;;;;;5.85;100.00;99522.81;5121683;27;19972;-87
2022/02/12 03:25:38;;;;;;;;;;;;;;;6.20;100.00;99520.38;5121699;27;20021;-87
2022/02/12 03:28:06;;;;;;;;;;;;;;;6.15;100.00;99524.31;5138525;27;19923;-88
2022/02/12 03:30:34;;;;;;;;;;;;;;;6.33;100.00;99513.38;5104449;27;19967;-87
2022/02/12 03:33:01;;;;;;;;;;;;;;;5.94;100.00;99507.47;5138774;27;19930;-87
2022/02/12 03:35:28;;;;;;;;;;;;;;;6.20;100.00;99520.38;5138624;27;19927;-87
2022/02/12 03:38:10;;;;;;;;;;;;;;;6.32;100.00;99504.25;5138449;27;19923;-87
2022/02/12 03:40:39;;;;;;;;;;;;;;;6.17;100.00;99512.81;5121355;27;19923;-87
2022/02/12 03:43:06;;;;;;;;;;;;;;;6.29;100.00;99506.97;5121219;27;19988;-87
2022/02/12 03:45:34;;;;;;;;;;;;;;;6.21;100.00;99483.91;5121614;27;19971;-87
2022/02/12 03:48:01;;;;;;;;;;;;;;;5.96;100.00;99482.94;5120989;27;20374;-88
2022/02/12 03:50:32;;;;;;;;;;;;;;;6.38;100.00;99479.69;5120561;27;20022;-87
2022/02/12 03:53:00;;;;;;;;;;;;;;;6.19;100.00;99477.16;5121222;27;19966;-87
2022/02/12 03:55:27;;;;;;;;;;;;;;;5.86;100.00;99480.06;5120758;27;20377;-87
2022/02/12 03:57:55;;;;;;;;;;;;;;;5.87;100.00;99463.03;5137666;27;19967;-87
2022/02/12 04:00:23;;;;;;;;;;;;;;;6.11;100.00;99467.19;5120884;27;19923;-88
2022/02/12 04:02:50;;;;;;;;;;;;;;;6.08;100.00;99460.44;5138485;27;19967;-87
2022/02/12 04:05:17;;;;;;;;;;;;;;;6.21;100.00;99461.72;5137565;27;19927;-86
2022/02/12 04:07:44;;;;;;;;;;;;;;;6.32;100.00;99468.16;5120927;27;20004;-87
2022/02/12 04:10:14;;;;;;;;;;;;;;;6.44;100.00;99453.16;5104050;27;19930;-87
2022/02/12 04:12:41;;;;;;;;;;;;;;;6.22;100.00;99446.69;5120399;27;20014;-88
2022/02/12 04:15:14;;;;;;;;;;;;;;;6.22;100.00;99448.66;5089186;27;19927;-88
2022/02/12 04:17:48;;;;;;;;;;;;;;;6.07;100.00;99427.53;5106374;27;19930;-88
2022/02/12 04:20:17;;;;;;;;;;;;;;;6.35;100.00;99427.72;5137801;27;20007;-87
2022/02/12 04:22:44;;;;;;;;;;;;;;;6.28;100.00;99427.69;5137765;27;19930;-87
2022/02/12 04:25:12;;;;;;;;;;;;;;;6.38;100.00;99416.66;5120470;27;19930;-87
2022/02/12 04:27:40;;;;;;;;;;;;;;;6.23;100.00;99408.63;5137468;27;20393;-87
2022/02/12 04:30:10;;;;;;;;;;;;;;;6.45;100.00;99393.72;5138296;27;20013;-87
2022/02/12 04:32:38;;;;;;;;;;;;;;;6.02;100.00;99392.63;5138051;27;19930;-87
2022/02/12 04:35:07;;;;;;;;;;;;;;;6.24;100.00;99401.91;5155662;27;19931;-87
2022/02/12 04:37:34;;;;;;;;;;;;;;;6.32;100.00;99390.44;5137556;27;20397;-87
2022/02/12 04:40:02;;;;;;;;;;;;;;;6.20;100.00;99396.31;5103185;27;19923;-87
2022/02/12 04:42:29;;;;;;;;;;;;;;;6.18;100.00;99400.69;5103172;27;19923;-88
2022/02/12 04:44:56;;;;;;;;;;;;;;;5.88;100.00;99386.97;5120370;27;19923;-88
2022/02/12 04:47:23;;;;;;;;;;;;;;;6.24;100.00;99401.91;5120507;27;19954;-87
2022/02/12 04:49:51;;;;;;;;;;;;;;;6.30;100.00;99386.47;5103022;27;20370;-87
2022/02/12 04:52:20;;;;;;;;;;;;;;;6.63;100.00;99375.16;5120647;27;19923;-87
2022/02/12 04:54:47;;;;;;;;;;;;;;;6.54;100.00;99381.03;5136876;27;19931;-89
2022/02/12 04:57:14;;;;;;;;;;;;;;;6.65;100.00;99373.56;5103888;27;19935;-88
2022/02/12 04:59:42;;;;;;;;;;;;;;;6.11;100.00;99378.41;5103008;27;20427;-88
2022/02/12 05:02:10;;;;;;;;;;;;;;;6.26;100.00;99360.66;5103528;27;20055;-87
2022/02/12 05:04:37;;;;;;;;;;;;;;;5.99;100.00;99359.31;5103134;27;19923;-87
2022/02/12 05:07:05;;;;;;;;;;;;;;;5.73;100.00;99363.06;5103182;27;19972;-87
2022/02/12 05:09:34;;;;;;;;;;;;;;;6.49;100.00;99355.66;5155043;27;19931;-88
2022/02/12 05:12:03;;;;;;;;;;;;;;;5.82;100.00;99354.44;5120060;27;19923;-87
2022/02/12 05:14:31;;;;;;;;;;;;;;;6.28;100.00;99347.22;5119738;27;19979;-87
2022/02/12 05:16:59;;;;;;;;;;;;;;;6.57;100.00;99346.16;5120206;27;19927;-88
2022/02/12 05:19:26;;;;;;;;;;;;;;;6.68;100.00;99341.47;5103084;27;19923;-88
2022/02/12 05:21:54;;;;;;;;;;;;;;;6.66;100.00;99332.72;5120033;27;19923;-88
2022/02/12 05:24:21;;;;;;;;;;;;;;;6.62;100.00;99331.91;5102501;27;19930;-88
2022/02/12 05:26:48;;;;;;;;;;;;;;;6.18;100.00;99339.63;5136890;27;19930;-88
2022/02/12 05:29:16;;;;;;;;;;;;;;;6.12;100.00;99330.09;5137391;27;19930;-88
2022/02/12 05:31:43;;;;;;;;;;;;;;;6.38;100.00;99327.84;5120364;27;19923;-88
2022/02/12 05:34:14;;;;;;;;;;;;;;;6.18;100.00;99317.44;5120345;27;20006;-88
2022/02/12 05:36:42;;;;;;;;;;;;;;;6.51;100.00;99308.88;5103840;27;19923;-88
2022/02/12 05:39:10;;;;;;;;;;;;;;;5.93;100.00;99305.38;5107100;27;19934;-87
2022/02/12 05:41:37;;;;;;;;;;;;;;;6.27;100.00;99315.09;5140850;27;19927;-88
2022/02/12 05:44:05;;;;;;;;;;;;;;;6.57;100.00;99307.31;5106554;27;19928;-88
2022/02/12 05:46:32;;;;;;;;;;;;;;;6.12;100.00;99294.03;5106861;27;19971;-88
2022/02/12 05:48:59;;;;;;;;;;;;;;;6.02;100.00;99292.78;5127186;27;19927;-88
2022/02/12 05:51:30;;;;;;;;;;;;;;;6.25;100.00;99292.50;5137852;27;20060;-87
2022/02/12 05:53:59;;;;;;;;;;;;;;;6.40;100.00;99275.53;5102574;27;19976;-88
2022/02/12 05:56:27;;;;;;;;;;;;;;;6.47;100.00;99277.50;5102820;27;19923;-88
2022/02/12 05:58:55;;;;;;;;;;;;;;;6.14;100.00;99277.75;5102707;27;19981;-88
2022/02/12 06:01:22;;;;;;;;;;;;;;;6.32;100.00;99257.25;5103025;27;19924;-88
2022/02/12 06:03:50;;;;;;;;;;;;;;;6.34;100.00;99254.06;5103148;27;19980;-87
2022/02/12 06:06:18;;;;;;;;;;;;;;;6.03;100.00;99243.66;5102662;27;20375;-88
2022/02/12 06:08:45;;;;;;;;;;;;;;;6.22;100.00;99237.78;5085359;27;19973;-87
2022/02/12 06:11:12;;;;;;;;;;;;;;;6.59;100.00;99224.41;5086004;27;20004;-87
2022/02/12 06:13:39;;;;;;;;;;;;;;;6.63;100.00;99228.00;5119871;27;19924;-88
2022/02/12 06:16:07;;;;;;;;;;;;;;;5.69;100.00;99218.06;5120322;27;20006;-87
2022/02/12 06:18:37;;;;;;;;;;;;;;;6.27;100.00;99215.22;5086534;27;20041;-87
2022/02/12 06:21:08;;;;;;;;;;;;;;;5.73;100.00;99198.66;5086971;27;20382;-88
2022/02/12 06:23:36;;;;;;;;;;;;;;;6.29;100.00;99196.16;5085333;27;19923;-88
2022/02/12 06:26:04;;;;;;;;;;;;;;;6.20;100.00;99201.28;5102373;27;19953;-88
2022/02/12 06:28:31;;;;;;;;;;;;;;;6.02;100.00;99175.47;5085287;27;20014;-88
2022/02/12 06:31:01;;;;;;;;;;;;;;;5.82;100.00;99196.38;5101989;27;19927;-88
2022/02/12 06:33:31;;;;;;;;;;;;;;;5.94;100.00;99191.28;5103501;27;19930;-87
2022/02/12 06:35:59;;;;;;;;;;;;;;;5.98;100.00;99181.03;5121221;27;19929;-87
2022/02/12 06:38:27;;;;;;;;;;;;;;;6.09;100.00;99179.06;5119051;27;19923;-87
2022/02/12 06:40:54;;;;;;;;;;;;;;;5.82;100.00;99183.31;5105101;27;19926;-87
2022/02/12 06:43:21;;;;;;;;;;;;;;;5.90;100.00;99179.38;5122911;27;19927;-87
2022/02/12 06:45:49;;;;;;;;;;;;;;;5.89;100.00;99199.19;5122567;27;20369;-88
2022/02/12 06:48:18;;;;;;;;;;;;;;;6.04;100.00;99175.88;5101872;27;19923;-87
2022/02/12 06:50:46;;;;;;;;;;;;;;;5.97;100.00;99178.63;5118361;27;20007;-88
2022/02/12 06:53:14;;;;;;;;;;;;;;;5.92;100.00;99167.91;5118701;27;19924;-86
2022/02/12 06:55:44;;;;;;;;;;;;;;;5.91;100.00;99174.66;5120832;27;19924;-86
2022/02/12 07:02:42;;;;;;;;;;;;;;;6.12;100.00;99149.75;5033400;28;19921;-78
2022/02/12 07:05:09;;;;;;;;;;;;;;;6.31;100.00;99172.41;5033704;28;19936;-83
2022/02/12 07:07:44;;;;;;;;;;;;;;;6.14;100.00;99150.16;5017175;28;19925;-84
2022/02/12 07:10:11;;;;;;;;;;;;;;;6.09;100.00;99156.09;5017714;28;19929;-85
2022/02/12 07:12:38;;;;;;;;;;;;;;;6.02;100.00;99153.28;5000985;28;19925;-84
2022/02/12 07:15:08;;;;;;;;;;;;;;;5.92;100.00;99148.50;5000583;28;19925;-84
2022/02/12 07:17:39;;;;;;;;;;;;;;;6.05;100.00;99161.63;5000825;28;19968;-83
2022/02/12 07:20:10;;;;;;;;;;;;;;;6.02;100.00;99158.81;5033581;28;19925;-85
2022/02/12 07:22:39;;;;;;;;;;;;;;;5.83;100.00;99157.16;4984353;28;19925;-83
2022/02/12 07:25:10;;;;;;;;;;;;;;;6.09;100.00;99153.31;5016680;28;20038;-84
2022/02/12 07:27:40;;;;;;;;;;;;;;;6.12;100.00;99144.22;5027790;28;19930;-84
2022/02/12 07:30:10;;;;;;;;;;;;;;;6.16;100.00;99147.78;5041546;28;19928;-84
2022/02/12 07:32:38;;;;;;;;;;;;;;;6.11;100.00;99128.72;5074668;27;19927;-83
2022/02/12 07:35:05;;;;;;;;;;;;;;;6.43;100.00;99146.25;5121486;27;19972;-83
2022/02/12 07:37:32;;;;;;;;;;;;;;;6.32;100.00;99131.56;5131570;27;20437;-83
2022/02/12 07:40:00;;;;;;;;;;;;;;;6.14;100.00;99128.75;5100942;27;20324;-83
2022/02/12 07:42:27;;;;;;;;;;;;;;;6.37;100.00;99125.63;5119142;27;19924;-83
2022/02/12 07:44:54;;;;;;;;;;;;;;;5.93;100.00;99111.25;5119788;27;19927;-83
2022/02/12 07:47:22;;;;;;;;;;;;;;;6.18;100.00;99112.13;5120828;27;19927;-83
2022/02/12 07:49:50;;;;;;;;;;;;;;;6.03;100.00;99089.09;5117628;27;19924;-83
2022/02/12 07:52:17;;;;;;;;;;;;;;;5.75;100.00;99108.41;5125428;27;20248;-83
2022/02/12 07:54:44;;;;;;;;;;;;;;;5.97;100.00;99095.44;5156650;27;20319;-83
2022/02/12 07:57:11;;;;;;;;;;;;;;;6.01;100.00;99119.22;5117702;27;19928;-83
2022/02/12 07:59:38;;;;;;;;;;;;;;;5.94;100.00;99102.53;5100413;27;20426;-83
2022/02/12 08:02:05;;;;;;;;;;;;;;;6.02;100.00;99118.03;5133480;27;20034;-83
2022/02/12 08:04:32;;;;;;;;;;;;;;;5.94;100.00;99107.31;5100507;27;19923;-83
2022/02/12 08:09:46;;;;;;;;;;;;;;;6.13;100.00;99104.19;5116499;27;19923;-83
2022/02/12 08:12:13;;;;;;;;;;;;;;;6.15;100.00;99090.72;5134768;27;19967;-83
2022/02/12 08:14:45;;;;;;;;;;;;;;;6.36;100.00;99076.88;5117110;27;19923;-83
2022/02/12 08:17:15;;;;;;;;;;;;;;;6.27;100.00;99076.47;5116993;27;20340;-83
2022/02/12 08:19:42;;;;;;;;;;;;;;;6.24;100.00;99060.59;5116590;27;20286;-83
2022/02/12 08:22:12;;;;;;;;;;;;;;;6.29;100.00;99074.06;5119747;27;19962;-83
2022/02/12 08:24:40;;;;;;;;;;;;;;;6.54;100.00;99086.78;5120424;27;20284;-83
2022/02/12 08:27:09;;;;;;;;;;;;;;;6.45;100.00;99071.72;5120398;27;19927;-83
2022/02/12 08:29:44;;;;;;;;;;;;;;;6.51;100.00;99081.25;5120821;27;19922;-81
2022/02/12 08:32:17;;;;;;;;;;;;;;;6.36;100.00;99074.09;5137897;27;19924;-82
2022/02/12 08:34:44;;;;;;;;;;;;;;;6.52;100.00;99080.84;5137447;27;19923;-83
2022/02/12 08:37:12;;;;;;;;;;;;;;;6.40;100.00;99074.88;5156692;27;20388;-83
2022/02/12 08:39:42;;;;;;;;;;;;;;;6.36;100.00;99085.19;5104222;27;19923;-83
2022/02/12 08:42:11;;;;;;;;;;;;;;;6.76;100.00;99087.56;5104575;27;19923;-83
2022/02/12 08:44:38;;;;;;;;;;;;;;;6.70;100.00;99086.38;5103787;27;20365;-82
2022/02/12 08:47:05;;;;;;;;;;;;;;;6.49;100.00;99081.63;5120474;27;19923;-82
2022/02/12 08:49:32;;;;;;;;;;;;;;;6.91;100.00;99087.16;5120521;27;19923;-82
2022/02/12 08:51:59;;;;;;;;;;;;;;;6.87;100.00;99074.47;5120640;27;20378;-82
2022/02/12 08:54:26;;;;;;;;;;;;;;;6.76;100.00;99077.25;5137371;27;19930;-83
2022/02/12 08:56:54;;;;;;;;;;;;;;;7.08;100.00;99071.66;5137783;27;19927;-82
2022/02/12 08:59:21;;;;;;;;;;;;;;;6.90;100.00;99070.91;5141171;27;20299;-82
2022/02/12 09:01:57;;;;;;;;;;;;;;;6.78;100.00;99080.44;5111175;27;20022;-82
2022/02/12 09:04:25;;;;;;;;;;;;;;;6.83;100.00;99062.59;5150659;27;19938;-82
2022/02/12 09:06:52;;;;;;;;;;;;;;;7.30;100.00;99067.63;5111709;28;20336;-83
2022/02/12 09:09:20;;;;;;;;;;;;;;;7.22;100.00;99054.97;5113589;27;20435;-83
2022/02/12 09:11:47;;;;;;;;;;;;;;;7.44;100.00;99047.34;5140096;27;20023;-83
2022/02/12 09:14:14;;;;;;;;;;;;;;;7.14;100.00;99058.94;5087206;27;20294;-83
2022/02/12 09:16:42;;;;;;;;;;;;;;;7.21;100.00;99045.03;5105764;27;20465;-83
2022/02/12 09:19:10;;;;;;;;;;;;;;;7.21;100.00;99042.25;5121152;27;19923;-83
2022/02/12 09:21:36;;;;;;;;;;;;;;;7.42;100.00;99035.84;5106600;27;19924;-83
2022/02/12 09:24:03;;;;;;;;;;;;;;;7.19;100.00;99022.41;5127304;27;19923;-83
2022/02/12 09:26:32;;;;;;;;;;;;;;;7.48;100.00;99023.91;5156531;27;19938;-84
2022/02/12 09:29:03;;;;;;;;;;;;;;;7.76;100.00;99023.75;5104115;27;19923;-84
2022/02/12 09:31:30;;;;;;;;;;;;;;;7.88;100.00;99030.81;5103594;27;19923;-84
2022/02/12 09:33:57;;;;;;;;;;;;;;;7.95;100.00;99025.25;5120468;27;19951;-84
2022/02/12 09:36:26;;;;;;;;;;;;;;;7.70;100.00;99022.59;5086694;27;20374;-84
2022/02/12 09:38:55;;;;;;;;;;;;;;;7.71;100.00;99021.38;5103308;27;19923;-83
2022/02/12 09:41:23;;;;;;;;;;;;;;;7.69;100.00;99023.81;5104034;27;19927;-83
2022/02/12 09:43:53;;;;;;;;;;;;;;;7.72;100.00;99017.44;5119930;27;19923;-83
2022/02/12 09:46:35;;;;;;;;;;;;;;;7.59;100.00;99012.72;5068456;27;20324;-83
2022/02/12 09:49:03;;;;;;;;;;;;;;;7.68;100.00;99008.28;5119150;27;19955;-82
2022/02/12 09:51:31;;;;;;;;;;;;;;;7.37;100.00;99000.91;5101757;27;20011;-83
2022/02/12 09:53:58;;;;;;;;;;;;;;;7.66;100.00;98985.69;5084878;27;19928;-83
2022/02/12 09:56:25;;;;;;;;;;;;;;;7.45;100.00;98994.13;5137182;27;20322;-83
2022/02/12 09:58:52;;;;;;;;;;;;;;;7.50;100.00;98987.34;5101683;27;20398;-83
2022/02/12 10:01:21;;;;;;;;;;;;;;;7.38;100.00;98974.69;5137032;27;20405;-83
2022/02/12 10:03:49;;;;;;;;;;;;;;;7.43;100.00;98976.25;5118956;27;19923;-83
2022/02/12 10:06:19;;;;;;;;;;;;;;;7.01;100.00;98939.13;5101889;27;19965;-82
2022/02/12 10:09:02;;;;;;;;;;;;;;;7.42;100.00;98983.03;5136766;27;20367;-82
2022/02/12 10:11:38;;;;;;;;;;;;;;;7.65;100.00;98966.63;5101805;27;20267;-83
2022/02/12 10:14:12;;;;;;;;;;;;;;;7.86;100.00;98974.81;5118502;27;19927;-82
2022/02/12 10:16:48;;;;;;;;;;;;;;;7.68;100.00;98927.66;5118191;27;19923;-82
2022/02/12 10:19:15;;;;;;;;;;;;;;;7.73;100.00;98935.56;5118562;27;19927;-83
2022/02/12 10:22:17;;;;;;;;;;;;;;;7.65;100.00;98927.69;5090911;28;19958;-82
2022/02/12 10:24:55;;;;;;;;;;;;;;;7.63;100.00;98913.38;5072518;28;19924;-82
2022/02/12 10:27:24;;;;;;;;;;;;;;;7.61;100.00;98919.38;5089462;28;19982;-82
2022/02/12 10:29:51;;;;;;;;;;;;;;;8.13;100.00;98926.53;5088935;28;20023;-83
2022/02/12 10:32:19;;;;;;;;;;;;;;;8.23;100.00;98899.81;5089326;28;19968;-83
2022/02/12 10:34:47;;;;;;;;;;;;;;;8.14;100.00;98928.09;5089401;28;19978;-83
2022/02/12 10:37:19;;;;;;;;;;;;;;;7.73;100.00;98898.63;5080895;28;19974;-82
2022/02/12 10:39:59;;;;;;;;;;;;;;;7.96;100.00;98927.47;5068844;28;19928;-82
2022/02/12 10:42:27;;;;;;;;;;;;;;;7.62;100.00;98887.56;5068833;28;19932;-83
2022/02/12 10:45:00;;;;;;;;;;;;;;;7.70;100.00;98894.66;5068670;28;19925;-84
2022/02/12 10:47:27;;;;;;;;;;;;;;;7.86;100.00;98906.06;5068837;28;19924;-84
2022/02/12 10:49:54;;;;;;;;;;;;;;;8.16;100.00;98897.88;5077116;28;20031;-83
2022/02/12 10:52:22;;;;;;;;;;;;;;;8.15;100.00;98893.50;5072174;28;20383;-82
2022/02/12 10:54:50;;;;;;;;;;;;;;;8.40;100.00;98885.75;5088772;28;19978;-84
2022/02/12 10:57:21;;;;;;;;;;;;;;;8.28;100.00;98872.34;5071967;28;19924;-83
2022/02/12 10:59:54;;;;;;;;;;;;;;;8.34;100.00;98875.47;5069558;28;19959;-84
2022/02/12 11:02:24;;;;;;;;;;;;;;;8.43;100.00;98873.78;5080909;28;19928;-83
2022/02/12 11:04:53;;;;;;;;;;;;;;;8.09;100.00;98891.59;5069523;28;19924;-82
2022/02/12 11:07:20;;;;;;;;;;;;;;;8.13;100.00;98897.91;5068336;28;19924;-82
2022/02/12 11:09:47;;;;;;;;;;;;;;;7.79;100.00;98883.88;5052705;28;20437;-83
2022/02/12 11:12:15;;;;;;;;;;;;;;;7.93;100.00;98861.50;5064218;28;19924;-84
2022/02/12 11:14:43;;;;;;;;;;;;;;;8.08;100.00;98885.22;5068070;28;20012;-83
2022/02/12 11:17:12;;;;;;;;;;;;;;;8.02;100.00;98864.59;5074462;28;19924;-84
2022/02/12 11:19:39;;;;;;;;;;;;;;;8.07;100.00;98850.25;5065845;28;20019;-84
2022/02/12 11:22:08;;;;;;;;;;;;;;;8.34;100.00;98826.16;5070419;28;20282;-84
2022/02/12 11:24:37;;;;;;;;;;;;;;;8.15;100.00;98845.41;5052552;28;19925;-84
2022/02/12 11:27:14;;;;;;;;;;;;;;;8.21;100.00;98838.97;5069824;28;19931;-85
2022/02/12 11:29:42;;;;;;;;;;;;;;;8.08;100.00;98801.75;5077341;28;20508;-84
2022/02/12 11:32:13;;;;;;;;;;;;;;;8.07;100.00;98847.47;5084566;28;19932;-84
2022/02/12 11:34:50;;;;;;;;;;;;;;;8.09;100.00;98817.22;5042421;28;20375;-83
2022/02/12 11:37:18;;;;;;;;;;;;;;;7.60;100.00;98831.59;5075949;28;19924;-83
2022/02/12 11:40:04;;;;;;;;;;;;;;;7.52;100.00;98818.94;5075592;28;19925;-83
2022/02/12 11:42:44;;;;;;;;;;;;;;;7.68;100.00;98824.75;5075408;28;19924;-83
2022/02/12 11:45:21;;;;;;;;;;;;;;;7.75;100.00;98813.59;5059691;28;20334;-83
2022/02/12 11:48:07;;;;;;;;;;;;;;;8.03;100.00;98816.09;5075495;28;19928;-83
2022/02/12 11:50:44;;;;;;;;;;;;;;;7.52;100.00;98813.38;5075915;28;20271;-83
2022/02/12 11:53:28;;;;;;;;;;;;;;;7.17;100.00;98808.06;5059046;28;19924;-83
2022/02/12 11:55:55;;;;;;;;;;;;;;;7.53;100.00;98795.47;5058659;28;19924;-83
2022/02/12 11:58:42;;;;;;;;;;;;;;;7.48;100.00;98818.19;5042276;28;19929;-83
2022/02/12 12:01:21;;;;;;;;;;;;;;;7.94;100.00;98796.31;5068386;28;19939;-83
2022/02/12 12:04:01;;;;;;;;;;;;;;;7.78;100.00;98790.50;5042194;28;19951;-83
2022/02/12 12:06:28;;;;;;;;;;;;;;;7.52;100.00;98818.94;5075028;28;19938;-83
2022/02/12 12:09:06;;;;;;;;;;;;;;;7.50;100.00;98795.53;5042048;28;20339;-83
2022/02/12 12:11:33;;;;;;;;;;;;;;;7.31;100.00;98797.63;5041974;28;19932;-83
2022/02/12 12:14:19;;;;;;;;;;;;;;;7.11;100.00;98777.16;5075352;28;20330;-83
2022/02/12 12:16:53;;;;;;;;;;;;;;;7.22;100.00;98788.19;5058591;28;19928;-83
2022/02/12 12:19:25;;;;;;;;;;;;;;;7.41;100.00;98795.97;5039662;28;21717;-83
2022/02/12 12:21:55;;;;;;;;;;;;;;;7.17;100.00;98780.28;5056393;28;20260;-82
2022/02/12 12:24:24;;;;;;;;;;;;;;;7.07;100.00;98792.28;5074494;28;19946;-82
2022/02/12 12:26:53;;;;;;;;;;;;;;;6.92;100.00;98776.88;5074831;28;19925;-82
2022/02/12 12:32:09;;;;;;;;;;;;;;;7.60;100.00;98770.41;5055967;28;20314;-82
2022/02/12 12:34:37;;;;;;;;;;;;;;;7.39;100.00;98757.47;5073120;28;20021;-82
2022/02/12 12:37:05;;;;;;;;;;;;;;;7.44;100.00;98772.94;5058352;28;20019;-83
2022/02/12 12:39:34;;;;;;;;;;;;;;;7.30;100.00;98743.25;5075734;28;20011;-82
2022/02/12 12:42:02;;;;;;;;;;;;;;;7.30;100.00;98771.06;5074062;28;19931;-82
2022/02/12 12:44:31;;;;;;;;;;;;;;;7.48;100.00;98757.03;5073240;28;20018;-82
2022/02/12 12:47:00;;;;;;;;;;;;;;;7.57;100.00;98760.13;5057597;28;19934;-83
2022/02/12 12:49:33;;;;;;;;;;;;;;;7.34;100.00;98746.03;5074239;28;19932;-82
2022/02/12 12:52:02;;;;;;;;;;;;;;;7.40;100.00;98733.25;5054964;28;19986;-82
2022/02/12 12:54:31;;;;;;;;;;;;;;;7.65;100.00;98736.59;5072337;28;19978;-82
2022/02/12 12:56:59;;;;;;;;;;;;;;;7.34;100.00;98719.03;5057532;28;19951;-83
2022/02/12 12:59:26;;;;;;;;;;;;;;;7.38;100.00;98725.34;5073678;28;19959;-83
2022/02/12 13:01:54;;;;;;;;;;;;;;;7.21;100.00;98725.47;5040813;28;19924;-81
2022/02/12 13:04:22;;;;;;;;;;;;;;;7.10;100.00;98703.31;5073642;28;19925;-83
2022/02/12 13:06:50;;;;;;;;;;;;;;;7.31;100.00;98730.94;5075223;28;19951;-82
2022/02/12 13:09:18;;;;;;;;;;;;;;;7.17;100.00;98700.50;5057228;28;20387;-82
2022/02/12 13:11:45;;;;;;;;;;;;;;;7.26;100.00;98717.50;5041978;28;19967;-82
2022/02/12 13:14:12;;;;;;;;;;;;;;;7.55;100.00;98684.66;5054021;28;20326;-83